This is the latest recevied weather packets stored in our database for station/object SP9MLI-1. If no packets are shown the sender has not sent any weather packets the latest 10 day(s).
| Time | Temp. | Humidity | Pressure | Rain* | Wind** | Luminosity | Snow |
|---|---|---|---|---|---|---|---|
| 1777642697 | 21.67° C | 50% | 1029.6 hPa | 0 mm | - | - | - |
| 1777641794 | 21.67° C | 50% | 1029.6 hPa | 0 mm | - | - | - |
| 1777640895 | 21.67° C | 50% | 1029.6 hPa | 0 mm | - | - | - |
| 1777639993 | 22.22° C | 49% | 1029.6 hPa | 0 mm | - | - | - |
| 1777639094 | 22.78° C | 48% | 1029.6 hPa | 0 mm | - | - | - |
| 1777638196 | 23.33° C | 46% | 1029.9 hPa | 0 mm | - | - | - |
| 1777637295 | 23.33° C | 46% | 1029.9 hPa | 0 mm | - | - | - |
| 1777636410 | 24.44° C | 43% | 1029.9 hPa | 0 mm | - | - | - |
| 1777635514 | 24.44° C | 43% | 1029.9 hPa | 0 mm | - | - | - |
| 1777634833 | 24.44° C | 43% | 1029.9 hPa | 0 mm | - | - | - |
| 1777634596 | 24.44° C | 43% | 1029.9 hPa | 0 mm | - | - | - |
| 1777627398 | 22.78° C | 47% | 1029.9 hPa | 0 mm | - | - | - |
| 1777626498 | 22.22° C | 50% | 1029.9 hPa | 0 mm | - | - | - |
| 1777622898 | 22.78° C | 50% | 1029.6 hPa | 0 mm | - | - | - |
| 1777619307 | 20.56° C | 50% | 1027.5 hPa | 0 mm | - | - | - |
| 1777618403 | 20.56° C | 50% | 1027.5 hPa | 0 mm | - | - | - |
| 1777581497 | 6.67° C | 75% | 1026.5 hPa | 0 mm | - | - | - |
| 1777580605 | 6.67° C | 75% | 1026.5 hPa | 0 mm | - | - | - |
| 1777579698 | 7.22° C | 76% | 1026.5 hPa | 0 mm | - | - | - |
| 1777578797 | 7.78° C | 73% | 1026.5 hPa | 0 mm | - | - | - |
| 1777577003 | 9.44° C | 71% | 1027.2 hPa | 0 mm | - | - | - |
| 1777576093 | 10° C | 69% | 1027.2 hPa | 0 mm | - | - | - |
| 1777575194 | 10.56° C | 67% | 1027.2 hPa | 0 mm | - | - | - |
| 1777574293 | 11.11° C | 66% | 1027.5 hPa | 0 mm | - | - | - |
| 1777573393 | 11.67° C | 64% | 1027.5 hPa | 0 mm | - | - | - |
* Rain latest hour (hover to see other rain measurements)
** Current wind speed in m/s (hover to see current wind gust speed)